Don's Testing Zone


Current Conditions
weather data
source:

National Weather Service
Clear Little Rock, AR
Clear, 72°F
Thursday, June 29, 2017 1:53 AM CDT
Temperature: 72°F/22°C
Humidity: 94%
Barometer: 29.94in/1013.7mb Barometer Steady
Wind: W at 8mph/13kmh
View other cities:
Searcy | Little Rock | Hot Springs | Russellville | More...
Astronomical Conditions (Clear Sky Clock)
Searcy Clear Sky Clock
    

Radar Images

NWS
    Wx Underground

NWS METAR weather data

ADDS - METARS form results





Aviation Digital Data Service (ADDS) Output produced by METARs form (0708 UTC 29 June 2017) found at http://www.aviationweather.gov/adds/metars/ 

KLIT 290653Z 17007KT 10SM CLR 22/21 A2994 RMK AO2 SLP137 T02220211

KLIT 290553Z 16003KT 10SM CLR 23/21 A2994 RMK AO2 SLP139 T02280211 10289 20228403110194 51006

KLIT 290453Z 00000KT 10SM CLR 23/21 A2995 RMK AO2 SLP139 T02330206

KLIT 290353Z 15004KT 10SM CLR 24/21 A2994 RMK AO2 SLP137 T02390206

KLIT 290253Z 15007KT 10SM CLR 24/20 A2993 RMK AO2 SLP134 T02440200 53002

KLIT 290153Z 15006KT 10SM CLR 26/20 A2993 RMK AO2 SLP134 T02610200

KLIT 290053Z 15008KT 10SM FEW050 28/21 A2992 RMK AO2 SLP130 T02780206

KLIT 282353Z COR 13011KT 10SM SCT050 29/21 A2992 RMK AO2 SLP131 T02940206 1031120289 56013

KLIT 282253Z 13010KT 10SM SCT050 30/21 A2993 RMK AO2 SLP133 T03000211

KLIT 282153Z 16008KT 10SM SCT050 31/20 A2994 RMK AO2 SLP138 T03060200

KLIT 282053Z 16009KT 10SM SCT050 31/21 A2996 RMK AO2 SLP144 T03060206 56019

KLIT 281953Z 17009KT 10SM SCT050 BKN250 31/20 A2997 RMK AO2 SLP148 T03060200

KLIT 281853Z 17008KT 10SM BKN050 BKN250 31/20 A2999 RMK AO2 SLP156 T03060200

KLIT 281753Z 17007KT 130V200 10SM BKN050 BKN250 29/19 A3002 RMK AO2 SLP163T02940194 10300 20211 56009

KLIT 281653Z 17011G17KT 10SM SCT042 BKN250 29/19 A3002 RMK AO2 SLP164 T02940189

KLIT 281553Z 17009KT 10SM FEW050 SCT250 28/19 A3003 RMK AO2 SLP167 T02830194

KLIT 281453Z 19009KT 10SM FEW250 27/20 A3004 RMK AO2 SLP172 T02720200 50007

KLIT 281353Z 17006KT 10SM FEW250 24/21 A3005 RMK AO2 SLP173 T02440206

KLIT 281253Z 14006KT 10SM FEW250 23/21 A3003 RMK AO2 SLP168 T02280206

KLIT 281153Z 00000KT 10SM FEW050 FEW250 21/21 A3002 RMK AO2 SLP166 FU SWT02060206 10211 20194 50009

KLIT 281053Z 00000KT 10SM SCT055 SCT250 21/20 A3003 RMK AO2 SLP167 T02060200

KLIT 280953Z 00000KT 10SM BKN050 20/20 A3000 RMK AO2 SLP159 T02000200

KLIT 280853Z 16003KT 10SM CLR 19/19 A3000 RMK AO2 SLP158 T01940194 58008

KLIT 280753Z 00000KT 10SM CLR 19/19 A3002 RMK AO2 SLP165 T01940194